Rucker, Arizona
Current Conditions -  °F | °C
As of 8:51 PM on Saturday 25 Oct 2014 (Local Time) from KSAD Reporting Station
Clear Clear  
Wind Chill: 70°   Ceiling: Unl
Heat Index: 70°   Visibility: 10mi
Dew Point: 49°   Wind: 7mph
Humidity: 47%   Direction: 120°ESE
Pressure: 30.05"   Gusts: NA
Location:  32.5598°N, 110.08°W
Report Text: KSAD 260351Z AUTO 12006KT 10SM CLR 21/09 A3005 RMK AO2 SLP135 T02110094
Loading
Personal Weather Stations






























Interactive Weather Map
Tropical Storm Tracking
New forecast layout! Learn more

10-Day Weather Forecast

Advertisements
Track Severe Weather on mobile